Time;durP1;ratioP1;P1;durP2;ratioP2;P2;SDS_P1;SDS_P2;PMS_P1;PMS_P2;Temp;Humidity;BMP_temperature;BMP_pressure;BME280_temperature;BME280_humidity;BME280_pressure;Samples;Min_cycle;Max_cycle;Signal;HPM_P1;HPM_P2
2023/02/08 00:02:01;;;;;;;31.10;11.67;;;;;;;-4.38;92.62;103716.78;5034188;28;20445;-69
2023/02/08 00:04:27;;;;;;;21.00;11.57;;;;;;;-4.49;93.06;103708.84;5034059;28;20471;-70
2023/02/08 00:06:55;;;;;;;24.95;12.00;;;;;;;-4.51;93.17;103705.50;5034134;28;20534;-70
2023/02/08 00:09:22;;;;;;;23.90;11.17;;;;;;;-4.53;93.17;103703.94;5034044;28;20224;-70
2023/02/08 00:11:48;;;;;;;23.70;11.90;;;;;;;-4.52;92.95;103701.16;5033794;28;20556;-70
2023/02/08 00:14:15;;;;;;;24.70;12.00;;;;;;;-4.68;93.34;103698.09;5034136;28;20510;-70
2023/02/08 00:16:42;;;;;;;39.40;12.90;;;;;;;-4.65;93.16;103693.41;5033918;28;20482;-70
2023/02/08 00:19:08;;;;;;;25.93;11.30;;;;;;;-4.68;93.32;103700.72;5033900;28;20435;-69
2023/02/08 00:21:35;;;;;;;24.50;11.43;;;;;;;-4.61;92.45;103697.44;5033665;28;20438;-70
2023/02/08 00:24:03;;;;;;;23.73;11.00;;;;;;;-4.70;94.25;103702.63;5033780;28;20786;-69
2023/02/08 00:26:30;;;;;;;24.95;13.27;;;;;;;-4.74;94.25;103702.03;5033291;28;20450;-70
2023/02/08 00:28:56;;;;;;;41.70;14.63;;;;;;;-4.71;95.44;103701.81;5039080;28;20266;-71
2023/02/08 00:31:23;;;;;;;24.57;11.80;;;;;;;-4.67;95.75;103697.13;5033770;28;20538;-70
2023/02/08 00:33:50;;;;;;;29.47;12.77;;;;;;;-4.60;95.02;103691.22;5033620;28;20536;-70
2023/02/08 00:36:16;;;;;;;29.83;12.60;;;;;;;-4.67;93.87;103690.03;5033558;28;20443;-70
2023/02/08 00:38:43;;;;;;;33.50;12.83;;;;;;;-4.58;94.35;103688.44;5033586;28;20475;-70
2023/02/08 00:41:11;;;;;;;25.97;11.70;;;;;;;-4.64;92.84;103694.22;5033543;28;20562;-70
2023/02/08 00:43:38;;;;;;;21.10;11.53;;;;;;;-4.65;92.95;103690.75;5033473;28;20453;-69
2023/02/08 00:46:06;;;;;;;31.80;12.90;;;;;;;-4.64;92.92;103687.13;5033400;28;20535;-70
2023/02/08 00:48:33;;;;;;;21.10;11.60;;;;;;;-4.78;92.46;103687.41;5033067;28;21065;-71
2023/02/08 00:51:02;;;;;;;34.17;13.67;;;;;;;-4.73;93.13;103689.69;5033097;28;21014;-70
2023/02/08 00:53:29;;;;;;;30.17;12.07;;;;;;;-4.72;92.66;103683.44;5033381;28;20431;-71
2023/02/08 00:55:56;;;;;;;32.73;12.67;;;;;;;-4.74;92.23;103694.09;5033020;28;20851;-68
2023/02/08 00:58:24;;;;;;;28.20;12.97;;;;;;;-4.75;92.75;103689.78;5033285;28;20443;-70
2023/02/08 01:00:52;;;;;;;29.40;12.77;;;;;;;-4.76;92.95;103697.84;5033221;28;20441;-71
2023/02/08 01:03:18;;;;;;;35.73;12.90;;;;;;;-4.90;92.60;103693.66;5033204;28;20439;-71
2023/02/08 01:05:45;;;;;;;29.35;12.65;;;;;;;-4.88;92.87;103689.09;5034531;28;20475;-70
2023/02/08 01:08:11;;;;;;;33.30;12.10;;;;;;;-4.77;93.28;103693.53;5033198;28;20210;-71
2023/02/08 01:10:38;;;;;;;23.08;10.50;;;;;;;-4.62;92.55;103697.59;5033019;28;20453;-71
2023/02/08 01:13:05;;;;;;;27.17;11.52;;;;;;;-4.65;92.35;103689.88;5033247;28;20191;-71
2023/02/08 01:15:32;;;;;;;31.47;13.00;;;;;;;-4.74;93.19;103691.47;5033041;28;20658;-71
2023/02/08 01:17:59;;;;;;;31.17;13.65;;;;;;;-4.77;93.70;103696.19;5033127;28;20527;-71
2023/02/08 01:20:26;;;;;;;34.07;14.07;;;;;;;-4.77;93.29;103690.91;5032708;28;20635;-72
2023/02/08 01:22:52;;;;;;;26.20;12.00;;;;;;;-4.76;94.50;103693.41;5032940;28;20951;-72
2023/02/08 01:25:19;;;;;;;33.90;12.80;;;;;;;-4.77;93.08;103689.09;5032969;28;20502;-71
2023/02/08 01:27:45;;;;;;;26.20;13.37;;;;;;;-4.81;92.15;103685.00;5032985;28;20450;-72
2023/02/08 01:30:13;;;;;;;33.53;11.93;;;;;;;-4.96;93.19;103688.84;5032969;28;20483;-72
2023/02/08 01:32:41;;;;;;;23.73;12.27;;;;;;;-5.03;92.17;103680.59;5032726;28;20438;-72
2023/02/08 01:35:08;;;;;;;29.80;11.43;;;;;;;-5.11;92.25;103678.53;5032889;28;20459;-72
2023/02/08 01:37:34;;;;;;;24.00;12.25;;;;;;;-5.13;93.64;103679.63;5033514;28;20443;-71
2023/02/08 01:40:01;;;;;;;27.37;12.40;;;;;;;-5.04;93.02;103684.19;5036595;28;20207;-71
2023/02/08 01:42:27;;;;;;;26.17;11.87;;;;;;;-5.00;91.77;103683.00;5036524;28;20963;-71
2023/02/08 01:45:28;;;;;;;22.63;12.43;;;;;;;-5.16;92.10;103674.56;5036829;28;20503;-72
2023/02/08 01:48:03;;;;;;;26.23;12.80;;;;;;;-5.17;92.41;103672.91;5036920;28;20454;-72
2023/02/08 01:50:34;;;;;;;18.47;10.63;;;;;;;-5.17;91.86;103670.25;5036403;28;20562;-71
2023/02/08 01:53:01;;;;;;;25.47;11.37;;;;;;;-5.23;91.98;103665.44;5036719;28;20799;-72
2023/02/08 01:55:32;;;;;;;31.02;12.63;;;;;;;-5.28;92.30;103675.53;5036476;28;20459;-71
2023/02/08 01:58:02;;;;;;;29.05;11.93;;;;;;;-5.22;93.00;103670.63;5036211;28;20201;-72
2023/02/08 02:00:29;;;;;;;29.40;12.60;;;;;;;-5.21;92.36;103682.03;5036491;28;20232;-72
2023/02/08 02:02:59;;;;;;;27.10;11.55;;;;;;;-5.27;92.18;103674.56;5036435;28;20204;-72
2023/02/08 02:05:30;;;;;;;24.13;11.40;;;;;;;-5.33;92.72;103671.44;5036268;28;20231;-71
2023/02/08 02:07:58;;;;;;;27.90;12.83;;;;;;;-5.35;92.94;103665.44;5036415;28;20279;-72
2023/02/08 02:10:27;;;;;;;34.80;12.20;;;;;;;-5.36;92.52;103663.78;5041091;28;20509;-72
2023/02/08 02:12:56;;;;;;;27.60;13.73;;;;;;;-5.43;92.55;103667.84;5035882;28;20291;-72
2023/02/08 02:15:23;;;;;;;28.90;10.80;;;;;;;-5.44;92.70;103666.16;5036136;28;20463;-72
2023/02/08 02:17:49;;;;;;;21.23;11.37;;;;;;;-5.48;92.78;103670.00;5035847;28;20443;-71
2023/02/08 02:20:24;;;;;;;30.30;11.67;;;;;;;-5.52;93.23;103673.00;5036150;28;20471;-72
2023/02/08 02:23:22;;;;;;;23.03;11.97;;;;;;;-5.42;92.62;103673.97;5036132;28;20510;-71
2023/02/08 02:26:11;;;;;;;31.07;13.20;;;;;;;-5.50;93.70;103684.28;5035639;28;20463;-72
2023/02/08 02:29:11;;;;;;;34.10;13.30;;;;;;;-5.48;93.49;103685.84;5035936;28;20466;-72
2023/02/08 02:31:57;;;;;;;37.00;12.40;;;;;;;-5.45;95.27;103682.94;5035948;28;20474;-71
2023/02/08 02:34:32;;;;;;;23.45;11.18;;;;;;;-5.39;95.27;103690.41;5035669;28;20814;-71
2023/02/08 02:37:06;;;;;;;29.60;12.90;;;;;;;-5.44;94.44;103689.94;5035837;28;20275;-71
2023/02/08 02:39:40;;;;;;;27.67;12.07;;;;;;;-5.52;94.66;103684.41;5035889;28;20515;-72
2023/02/08 02:45:06;;;;;;;28.60;13.23;;;;;;;-5.60;94.32;103684.97;5035512;28;20605;-72
2023/02/08 02:47:41;;;;;;;34.77;13.27;;;;;;;-5.56;94.51;103682.13;5035651;28;20793;-71
2023/02/08 02:50:16;;;;;;;25.90;12.33;;;;;;;-5.46;94.40;103685.72;5034588;28;20570;-71
2023/02/08 02:52:47;;;;;;;27.90;13.30;;;;;;;-5.39;92.96;103690.41;5036072;28;20430;-71
2023/02/08 02:55:18;;;;;;;25.40;11.45;;;;;;;-5.48;93.35;103679.72;5035556;28;20467;-71
2023/02/08 02:57:47;;;;;;;30.63;13.73;;;;;;;-5.63;94.22;103679.09;5035470;28;20184;-71
2023/02/08 03:00:21;;;;;;;27.98;13.10;;;;;;;-5.65;94.01;103683.66;5035415;28;20197;-71
2023/02/08 03:02:49;;;;;;;27.17;11.35;;;;;;;-5.64;93.88;103680.06;5035017;28;20238;-72
2023/02/08 03:05:16;;;;;;;33.28;13.02;;;;;;;-5.63;94.12;103681.72;5035243;28;20229;-70
2023/02/08 03:08:22;;;;;;;27.83;12.90;;;;;;;-5.60;94.09;103678.88;5035325;28;20216;-72
2023/02/08 03:11:07;;;;;;;24.37;11.67;;;;;;;-5.52;93.37;103684.41;5034952;28;20212;-72
2023/02/08 03:13:48;;;;;;;27.75;12.63;;;;;;;-5.63;93.46;103684.38;5035203;28;20435;-71
2023/02/08 03:16:19;;;;;;;31.33;12.03;;;;;;;-5.59;93.95;103678.72;5035220;28;20227;-71
2023/02/08 03:19:02;;;;;;;29.17;12.77;;;;;;;-5.48;94.07;103688.50;5035137;28;20462;-71
2023/02/08 03:21:40;;;;;;;24.70;11.23;;;;;;;-5.53;94.93;103682.72;5035046;28;20464;-70
2023/02/08 03:24:16;;;;;;;36.05;12.85;;;;;;;-5.44;94.97;103681.19;5034953;28;20546;-71
2023/02/08 03:26:52;;;;;;;24.85;12.15;;;;;;;-5.33;94.14;103689.09;5034929;28;20188;-72
2023/02/08 03:29:27;;;;;;;19.15;10.60;;;;;;;-5.23;93.67;103694.50;5034532;28;20216;-71
2023/02/08 03:31:59;;;;;;;31.40;12.73;;;;;;;-5.23;94.01;103683.94;5034593;28;20194;-71
2023/02/08 03:34:33;;;;;;;23.27;11.60;;;;;;;-5.16;93.96;103695.72;5034356;28;20740;-71
2023/02/08 03:37:06;;;;;;;25.70;12.17;;;;;;;-5.22;93.78;103689.13;5034744;28;20462;-71
2023/02/08 03:39:35;;;;;;;24.13;12.00;;;;;;;-5.32;92.32;103699.53;5034405;28;20872;-72
2023/02/08 03:42:11;;;;;;;24.20;11.87;;;;;;;-5.42;93.67;103695.94;5034263;28;20688;-72
2023/02/08 03:44:42;;;;;;;19.97;10.97;;;;;;;-5.32;91.69;103701.34;5034508;28;20474;-71
2023/02/08 03:47:16;;;;;;;29.80;12.80;;;;;;;-5.37;92.07;103696.41;5034548;28;20839;-72
2023/02/08 03:49:49;;;;;;;23.45;12.65;;;;;;;-5.30;92.16;103693.31;5039733;28;20498;-72
2023/02/08 03:52:16;;;;;;;25.43;13.10;;;;;;;-5.49;92.87;103701.78;5034550;28;20243;-72
2023/02/08 03:54:50;;;;;;;28.87;11.50;;;;;;;-5.44;92.38;103686.47;5034285;28;20463;-72
2023/02/08 03:57:21;;;;;;;25.87;13.20;;;;;;;-5.42;92.62;103695.94;5034042;28;20495;-71
2023/02/08 03:59:51;;;;;;;32.45;13.52;;;;;;;-5.38;91.72;103686.81;5034373;28;20441;-70
2023/02/08 04:02:21;;;;;;;34.63;12.90;;;;;;;-5.48;91.46;103691.13;5033396;28;20188;-72
2023/02/08 04:04:51;;;;;;;27.33;13.30;;;;;;;-5.50;91.72;103702.75;5033860;28;20462;-71
2023/02/08 04:07:18;;;;;;;30.33;14.02;;;;;;;-5.60;91.28;103692.06;5034440;28;20435;-71
2023/02/08 04:09:45;;;;;;;22.23;11.55;;;;;;;-5.61;92.50;103693.03;5034058;28;20263;-71
2023/02/08 04:12:12;;;;;;;30.83;13.33;;;;;;;-5.66;93.36;103696.03;5033711;28;20220;-72
2023/02/08 04:14:38;;;;;;;30.30;12.77;;;;;;;-5.68;93.78;103691.81;5033628;28;20991;-72
2023/02/08 04:17:05;;;;;;;28.13;13.60;;;;;;;-5.69;93.19;103684.84;5033964;28;20235;-72
2023/02/08 04:19:32;;;;;;;27.40;12.57;;;;;;;-5.75;93.06;103687.97;5033632;28;20450;-72
2023/02/08 04:22:00;;;;;;;27.33;13.60;;;;;;;-5.71;93.21;103689.38;5033933;28;20446;-72
2023/02/08 04:24:26;;;;;;;27.87;13.33;;;;;;;-5.63;93.72;103687.84;5033447;28;20752;-72
2023/02/08 04:26:53;;;;;;;31.53;13.93;;;;;;;-5.63;93.58;103692.28;5033814;28;20439;-72
2023/02/08 04:29:19;;;;;;;28.53;14.60;;;;;;;-5.68;93.19;103695.28;5033675;28;20449;-72
2023/02/08 04:31:46;;;;;;;27.70;13.00;;;;;;;-5.66;92.80;103689.91;5033724;28;20526;-73
2023/02/08 04:34:13;;;;;;;22.03;11.83;;;;;;;-5.54;92.46;103688.09;5033643;28;20506;-70
2023/02/08 04:36:39;;;;;;;29.88;13.65;;;;;;;-5.59;92.23;103688.47;5033317;28;21007;-68
2023/02/08 04:39:07;;;;;;;30.17;15.30;;;;;;;-5.69;92.81;103688.31;5033601;28;20295;-72
2023/02/08 04:41:34;;;;;;;31.87;13.50;;;;;;;-5.70;92.41;103685.81;5033558;28;20287;-72
2023/02/08 04:44:00;;;;;;;26.48;14.27;;;;;;;-5.71;92.94;103684.09;5033415;28;20541;-72
2023/02/08 04:46:27;;;;;;;29.03;11.83;;;;;;;-5.83;93.42;103688.53;5033427;28;20208;-71
2023/02/08 04:48:54;;;;;;;32.40;14.57;;;;;;;-5.70;93.25;103685.81;5033403;28;20493;-72
2023/02/08 04:51:20;;;;;;;32.17;14.47;;;;;;;-5.76;93.02;103686.25;5033370;28;20232;-73
2023/02/08 04:53:47;;;;;;;27.65;13.23;;;;;;;-5.87;93.62;103682.63;5033383;28;20443;-72
2023/02/08 04:56:15;;;;;;;36.50;14.63;;;;;;;-5.81;94.17;103688.41;5033357;28;20242;-73
2023/02/08 04:58:41;;;;;;;33.83;15.10;;;;;;;-5.78;93.15;103688.19;5033014;28;21172;-72
2023/02/08 05:01:09;;;;;;;27.23;12.23;;;;;;;-5.81;93.14;103689.25;5033361;28;20457;-70
2023/02/08 05:03:36;;;;;;;33.10;14.18;;;;;;;-5.84;92.82;103689.50;5033270;28;20454;-72
2023/02/08 05:06:02;;;;;;;24.90;12.23;;;;;;;-5.87;93.40;103679.16;5033170;28;20311;-69
2023/02/08 05:08:29;;;;;;;32.50;15.48;;;;;;;-5.87;93.59;103684.44;5033164;28;20236;-70
2023/02/08 05:10:56;;;;;;;40.03;16.52;;;;;;;-5.86;93.05;103678.19;5032964;28;20224;-70
2023/02/08 05:13:24;;;;;;;26.77;13.10;;;;;;;-5.91;92.87;103686.47;5032937;28;20207;-70
2023/02/08 05:15:50;;;;;;;28.95;13.23;;;;;;;-5.80;92.88;103682.16;5032776;28;20259;-70
2023/02/08 05:18:17;;;;;;;31.90;14.10;;;;;;;-5.76;92.85;103681.81;5033066;28;20226;-69
2023/02/08 05:20:44;;;;;;;37.33;13.63;;;;;;;-5.86;93.59;103672.91;5032730;28;20709;-70
2023/02/08 05:23:10;;;;;;;25.40;12.07;;;;;;;-5.74;94.01;103679.09;5033241;28;20449;-71
2023/02/08 05:25:37;;;;;;;32.38;13.18;;;;;;;-5.76;95.17;103683.63;5032682;28;20240;-69
2023/02/08 05:28:04;;;;;;;27.75;14.88;;;;;;;-5.75;94.36;103683.53;5035702;28;20204;-71
2023/02/08 05:30:32;;;;;;;29.63;12.57;;;;;;;-5.68;93.56;103683.88;5036187;28;20631;-71
2023/02/08 05:32:59;;;;;;;40.08;14.73;;;;;;;-5.72;94.03;103674.50;5032752;28;20748;-71
2023/02/08 05:35:25;;;;;;;32.58;14.50;;;;;;;-5.82;93.38;103676.19;5032902;28;20258;-71
2023/02/08 05:37:52;;;;;;;33.08;13.93;;;;;;;-5.92;93.37;103676.91;5032990;28;20208;-71
2023/02/08 05:40:19;;;;;;;31.70;14.30;;;;;;;-5.68;92.40;103678.59;5032635;28;20653;-70
2023/02/08 05:42:46;;;;;;;25.33;13.53;;;;;;;-5.74;92.32;103682.56;5032888;28;20471;-72
2023/02/08 05:45:13;;;;;;;47.78;15.05;;;;;;;-5.65;92.16;103689.78;5032807;28;20499;-71
2023/02/08 05:47:41;;;;;;;34.80;13.18;;;;;;;-5.56;91.63;103693.50;5032874;28;20268;-71
2023/02/08 05:50:09;;;;;;;27.77;14.90;;;;;;;-5.64;91.58;103703.81;5032841;28;20247;-71
2023/02/08 05:52:36;;;;;;;38.07;15.97;;;;;;;-5.61;92.23;103698.31;5032866;28;20299;-71
2023/02/08 05:55:02;;;;;;;36.75;14.75;;;;;;;-5.57;93.23;103699.75;5032790;28;20840;-71
2023/02/08 05:57:29;;;;;;;31.67;14.98;;;;;;;-5.51;92.92;103706.38;5032766;28;20335;-71
2023/02/08 05:59:55;;;;;;;37.30;13.88;;;;;;;-5.44;93.10;103697.88;5032774;28;20250;-70
2023/02/08 06:02:22;;;;;;;40.03;16.58;;;;;;;-5.42;93.46;103703.00;5032631;28;20235;-70
2023/02/08 06:04:50;;;;;;;36.10;17.00;;;;;;;-5.30;92.81;103693.31;5032642;28;20232;-72
2023/02/08 06:07:16;;;;;;;32.95;16.77;;;;;;;-5.29;92.64;103705.56;5032689;28;20445;-71
2023/02/08 06:09:43;;;;;;;31.50;14.70;;;;;;;-5.33;93.40;103705.78;5032378;28;20204;-71
2023/02/08 06:12:10;;;;;;;29.83;14.20;;;;;;;-5.30;92.61;103710.00;5032274;28;20479;-71
2023/02/08 06:14:36;;;;;;;32.10;16.30;;;;;;;-5.32;92.30;103717.19;5032575;28;20467;-71
2023/02/08 06:17:03;;;;;;;33.80;14.70;;;;;;;-5.29;91.63;103713.47;5032478;28;20479;-71
2023/02/08 06:19:29;;;;;;;34.80;16.17;;;;;;;-5.24;90.46;103708.69;5032277;28;20631;-71
2023/02/08 06:21:57;;;;;;;38.40;16.27;;;;;;;-5.25;90.43;103717.56;5032548;28;20469;-72
2023/02/08 06:24:24;;;;;;;38.50;16.73;;;;;;;-5.27;91.42;103719.47;5032408;28;20311;-72
2023/02/08 06:26:51;;;;;;;33.80;15.70;;;;;;;-5.25;91.24;103725.50;5035793;28;20443;-71
2023/02/08 06:29:17;;;;;;;36.20;15.80;;;;;;;-5.15;91.03;103731.72;5035482;28;20204;-69
2023/02/08 06:31:44;;;;;;;36.43;15.80;;;;;;;-5.10;91.59;103735.69;5035521;28;20546;-71
2023/02/08 06:34:11;;;;;;;38.33;15.87;;;;;;;-5.08;93.60;103728.50;5035521;28;20575;-71
2023/02/08 06:36:37;;;;;;;38.77;16.03;;;;;;;-4.97;94.03;103717.09;5035546;28;20447;-71
2023/02/08 06:39:05;;;;;;;34.00;15.17;;;;;;;-4.88;95.14;103721.63;5035498;28;20449;-71
2023/02/08 06:41:32;;;;;;;27.47;13.90;;;;;;;-4.67;95.65;103720.91;5035161;28;20653;-71
2023/02/08 06:44:00;;;;;;;29.03;15.23;;;;;;;-4.64;96.49;103724.16;5035495;28;20489;-71
2023/02/08 06:46:26;;;;;;;34.10;15.20;;;;;;;-4.53;96.94;103731.22;5035414;28;20447;-71
2023/02/08 06:48:54;;;;;;;29.03;13.80;;;;;;;-4.47;97.37;103729.88;5035350;28;20443;-71
2023/02/08 06:51:20;;;;;;;22.20;11.57;;;;;;;-4.37;97.53;103726.38;5035183;28;21094;-71
2023/02/08 06:53:47;;;;;;;39.40;16.23;;;;;;;-4.28;97.62;103730.09;5035120;28;20546;-69
2023/02/08 06:56:15;;;;;;;24.33;12.70;;;;;;;-4.18;96.92;103738.13;5035491;28;20486;-71
2023/02/08 06:58:42;;;;;;;29.70;13.40;;;;;;;-4.16;96.50;103733.53;5035496;28;21003;-71
2023/02/08 07:01:12;;;;;;;26.53;15.13;;;;;;;-4.04;96.02;103732.53;5035429;28;20475;-70
2023/02/08 07:03:38;;;;;;;34.00;15.00;;;;;;;-3.96;95.77;103732.75;5035917;28;20431;-72
2023/02/08 07:06:05;;;;;;;28.30;12.30;;;;;;;-3.89;96.05;103741.03;5035359;28;20463;-71
2023/02/08 07:08:54;;;;;;;35.20;13.73;;;;;;;-3.79;96.04;103738.44;5061246;23;20566;-67
2023/02/08 07:11:22;;;;;;;31.27;14.30;;;;;;;-3.66;96.42;103736.47;5035244;28;20471;-71
2023/02/08 07:13:51;;;;;;;31.23;14.52;;;;;;;-3.63;96.09;103737.03;5035290;28;20446;-71
2023/02/08 07:16:19;;;;;;;27.23;14.10;;;;;;;-3.51;95.83;103734.31;5034860;28;20215;-71
2023/02/08 07:18:45;;;;;;;25.97;12.90;;;;;;;-3.46;95.66;103732.94;5035072;28;20562;-67
2023/02/08 07:21:12;;;;;;;26.80;12.57;;;;;;;-3.34;96.18;103728.44;5035197;28;20526;-69
2023/02/08 07:23:39;;;;;;;22.47;12.40;;;;;;;-3.25;96.24;103729.47;5035145;28;20486;-69
2023/02/08 07:26:08;;;;;;;29.40;11.70;;;;;;;-3.13;96.14;103731.06;5035011;28;20799;-70
2023/02/08 07:28:36;;;;;;;32.90;12.97;;;;;;;-3.06;97.13;103734.84;5034881;28;20563;-71
2023/02/08 07:31:05;;;;;;;24.37;12.00;;;;;;;-2.95;96.64;103726.81;5034882;28;20487;-71
2023/02/08 07:33:32;;;;;;;27.83;12.80;;;;;;;-2.86;96.78;103739.28;5034823;28;20438;-69
2023/02/08 07:35:59;;;;;;;25.57;12.63;;;;;;;-2.71;96.01;103739.72;5034763;28;20453;-69
2023/02/08 07:38:25;;;;;;;46.80;13.27;;;;;;;-2.66;95.54;103739.31;5034645;28;20465;-69
2023/02/08 07:41:12;;;;;;;33.07;13.43;;;;;;;-2.57;94.36;103741.16;5034948;28;20446;-68
2023/02/08 07:43:40;;;;;;;41.90;14.67;;;;;;;-2.55;93.65;103739.22;5034896;28;20489;-74
2023/02/08 07:46:08;;;;;;;39.13;14.30;;;;;;;-2.53;92.68;103740.75;5034895;28;20896;-69
2023/02/08 07:48:35;;;;;;;35.90;12.93;;;;;;;-2.48;92.64;103753.63;5034657;28;20912;-69
2023/02/08 07:51:02;;;;;;;29.73;14.20;;;;;;;-2.52;92.02;103746.94;5034599;28;20479;-71
2023/02/08 07:53:29;;;;;;;21.50;10.70;;;;;;;-2.43;92.33;103753.25;5034493;28;20815;-67
2023/02/08 07:55:56;;;;;;;24.23;11.57;;;;;;;-2.41;91.75;103756.59;5034479;28;20446;-68
2023/02/08 07:58:22;;;;;;;37.73;13.93;;;;;;;-2.37;91.84;103764.13;5034378;28;20824;-68
2023/02/08 08:00:51;;;;;;;23.77;11.77;;;;;;;-2.30;91.62;103765.28;5034404;28;20466;-67
2023/02/08 08:03:18;;;;;;;33.40;12.07;;;;;;;-2.31;91.36;103762.75;5034231;28;20475;-67
2023/02/08 08:05:44;;;;;;;29.37;12.83;;;;;;;-2.28;91.54;103765.13;5034242;28;20479;-67
2023/02/08 08:08:12;;;;;;;22.53;9.87;;;;;;;-2.17;91.07;103769.47;5034037;28;20526;-68
2023/02/08 08:10:39;;;;;;;26.60;11.47;;;;;;;-2.10;90.48;103774.09;5033953;28;20430;-68
2023/02/08 08:13:06;;;;;;;32.93;13.20;;;;;;;-2.07;90.48;103770.34;5034442;28;20534;-68
2023/02/08 08:15:32;;;;;;;28.57;11.60;;;;;;;-2.00;90.81;103767.97;5034107;28;20479;-69
2023/02/08 08:18:00;;;;;;;25.37;12.20;;;;;;;-1.96;90.47;103772.84;5033999;28;20486;-68
2023/02/08 08:20:27;;;;;;;28.50;11.93;;;;;;;-1.93;89.78;103761.97;5033906;28;20530;-69
2023/02/08 08:22:54;;;;;;;28.93;11.00;;;;;;;-1.93;89.25;103766.44;5034102;28;20478;-69
2023/02/08 08:25:20;;;;;;;26.20;12.07;;;;;;;-1.85;89.32;103767.41;5033898;28;20447;-68
2023/02/08 08:27:47;;;;;;;28.23;11.80;;;;;;;-1.81;88.76;103770.66;5033875;28;20546;-68
2023/02/08 08:30:16;;;;;;;27.37;11.47;;;;;;;-1.69;88.54;103776.63;5033889;28;20498;-68
2023/02/08 08:32:43;;;;;;;27.23;10.53;;;;;;;-1.64;88.94;103767.28;5033613;28;20487;-68
2023/02/08 08:35:11;;;;;;;29.67;11.13;;;;;;;-1.59;89.69;103770.34;5033856;28;20439;-68
2023/02/08 08:37:38;;;;;;;28.10;12.33;;;;;;;-1.40;89.57;103764.16;5033803;28;20443;-68
2023/02/08 08:40:07;;;;;;;38.90;12.93;;;;;;;-1.36;89.11;103764.72;5033554;28;20498;-67
2023/02/08 08:42:34;;;;;;;30.00;12.90;;;;;;;-1.28;88.94;103767.50;5033625;28;20474;-67
2023/02/08 08:45:00;;;;;;;31.27;11.77;;;;;;;-1.19;88.62;103763.16;5033635;28;20517;-67
2023/02/08 08:47:27;;;;;;;24.57;10.50;;;;;;;-1.08;88.50;103749.66;5033061;28;20542;-71
2023/02/08 08:49:53;;;;;;;28.33;13.97;;;;;;;-1.02;87.81;103752.59;5033525;28;20494;-69
2023/02/08 08:52:21;;;;;;;30.80;13.70;;;;;;;-0.96;87.19;103753.81;5033541;28;20475;-70
2023/02/08 08:54:48;;;;;;;27.77;12.93;;;;;;;-0.88;86.29;103745.97;5033059;28;21040;-69
2023/02/08 08:57:15;;;;;;;27.77;13.50;;;;;;;-0.87;86.61;103747.63;5033130;28;20448;-68
2023/02/08 08:59:42;;;;;;;30.40;11.73;;;;;;;-0.78;85.72;103744.09;5033406;28;20521;-68
2023/02/08 09:02:11;;;;;;;30.87;12.30;;;;;;;-0.74;85.74;103749.97;5033306;28;20435;-68
2023/02/08 09:04:39;;;;;;;29.10;11.90;;;;;;;-0.66;85.79;103746.56;5033011;28;21003;-67
2023/02/08 09:07:07;;;;;;;27.83;12.40;;;;;;;-0.56;85.82;103742.84;5033383;28;20497;-67
2023/02/08 09:09:35;;;;;;;37.90;14.60;;;;;;;-0.53;85.51;103750.56;5032839;28;20510;-68
2023/02/08 09:12:03;;;;;;;32.57;13.67;;;;;;;-0.57;85.71;103748.34;5032923;28;20493;-65
2023/02/08 09:14:29;;;;;;;38.60;13.63;;;;;;;-0.52;85.57;103748.72;5033194;28;20446;-68
2023/02/08 09:16:56;;;;;;;32.77;14.10;;;;;;;-0.54;85.24;103754.19;5032869;28;20451;-68
2023/02/08 09:19:23;;;;;;;38.23;14.47;;;;;;;-0.41;84.54;103750.34;5032776;28;20980;-67
2023/02/08 09:21:49;;;;;;;44.03;14.77;;;;;;;-0.33;84.37;103759.25;5033169;28;20530;-67
2023/02/08 09:24:16;;;;;;;33.47;14.20;;;;;;;-0.28;83.67;103764.97;5033078;28;20450;-67
2023/02/08 09:26:45;;;;;;;40.93;15.20;;;;;;;-0.24;83.45;103767.34;5033120;28;20539;-67
2023/02/08 09:29:12;;;;;;;29.63;12.43;;;;;;;-0.27;82.04;103764.00;5032263;28;20471;-67
2023/02/08 09:31:38;;;;;;;36.80;13.70;;;;;;;-0.21;82.36;103761.72;5032893;28;20521;-68
2023/02/08 09:34:06;;;;;;;28.97;13.30;;;;;;;-0.16;81.96;103759.44;5032533;28;20443;-67
2023/02/08 09:36:36;;;;;;;35.43;13.57;;;;;;;-0.11;81.17;103751.81;5032734;28;20533;-68
2023/02/08 09:39:07;;;;;;;31.27;14.43;;;;;;;-0.08;80.55;103746.19;5032917;28;20466;-67
2023/02/08 09:41:48;;;;;;;36.33;14.00;;;;;;;-0.07;80.46;103747.88;5032654;28;20519;-67
2023/02/08 09:44:23;;;;;;;39.23;14.97;;;;;;;-0.08;80.42;103749.69;5032964;28;20445;-67
2023/02/08 09:46:58;;;;;;;29.33;14.40;;;;;;;0.05;81.21;103746.66;5032970;28;20419;-67
2023/02/08 09:49:30;;;;;;;36.67;14.57;;;;;;;0.00;79.46;103743.63;5032527;28;21005;-67
2023/02/08 09:52:00;;;;;;;25.50;13.33;;;;;;;0.04;80.06;103734.31;5032917;28;20467;-67
2023/02/08 09:54:32;;;;;;;32.33;13.53;;;;;;;0.11;79.53;103740.72;5032543;28;20940;-67
2023/02/08 09:57:01;;;;;;;30.10;14.43;;;;;;;0.18;79.22;103740.94;5032669;28;20428;-67
2023/02/08 09:59:32;;;;;;;29.03;13.60;;;;;;;0.18;79.23;103727.63;5033160;28;20499;-67
2023/02/08 10:02:04;;;;;;;34.60;12.97;;;;;;;0.25;79.54;103732.16;5036702;28;20427;-68
2023/02/08 10:04:40;;;;;;;34.17;14.77;;;;;;;0.24;79.20;103722.50;5036260;28;20459;-68
2023/02/08 10:07:09;;;;;;;31.27;14.70;;;;;;;0.28;79.66;103714.19;5036521;28;20422;-67
2023/02/08 10:09:36;;;;;;;30.90;15.73;;;;;;;0.31;78.46;103721.88;5036089;28;20493;-68
2023/02/08 10:12:14;;;;;;;30.30;14.47;;;;;;;0.41;78.42;103715.47;5036355;28;20478;-68
2023/02/08 10:14:55;;;;;;;34.80;14.73;;;;;;;0.49;77.70;103712.03;5036050;28;20797;-68
2023/02/08 10:17:36;;;;;;;37.47;15.23;;;;;;;0.50;76.52;103711.84;5036350;28;20518;-67
2023/02/08 10:20:15;;;;;;;33.00;15.30;;;;;;;0.49;75.88;103707.53;5036232;28;20467;-67
2023/02/08 10:22:54;;;;;;;28.93;14.57;;;;;;;0.48;76.11;103700.50;5035944;28;20424;-67
2023/02/08 10:25:35;;;;;;;35.40;14.70;;;;;;;0.59;76.17;103696.75;5036157;28;20431;-66
2023/02/08 10:28:25;;;;;;;31.97;14.17;;;;;;;0.62;75.87;103695.56;5036142;28;20510;-67
2023/02/08 10:30:57;;;;;;;30.73;13.10;;;;;;;0.70;76.03;103688.47;5035803;28;20924;-66
2023/02/08 10:33:31;;;;;;;35.00;14.33;;;;;;;0.80;74.81;103685.69;5035685;28;20979;-67
2023/02/08 10:35:58;;;;;;;29.93;13.87;;;;;;;0.79;74.31;103681.34;5035710;28;20904;-67
2023/02/08 10:38:27;;;;;;;35.17;15.47;;;;;;;0.87;73.81;103672.53;5035785;28;20463;-68
2023/02/08 10:40:58;;;;;;;35.40;15.37;;;;;;;1.00;73.73;103672.94;5035883;28;20497;-67
2023/02/08 10:43:35;;;;;;;31.60;15.13;;;;;;;1.10;71.62;103672.81;5035524;28;20438;-66
2023/02/08 10:46:09;;;;;;;33.37;13.43;;;;;;;1.12;72.31;103669.00;5035757;28;20427;-68
2023/02/08 10:48:48;;;;;;;35.80;14.87;;;;;;;1.20;71.73;103676.19;5035775;28;20487;-68
2023/02/08 10:51:17;;;;;;;26.20;13.10;;;;;;;1.22;70.88;103672.34;5035681;28;20462;-67
2023/02/08 10:53:44;;;;;;;40.63;13.90;;;;;;;1.35;71.14;103671.88;5035577;28;20818;-67
2023/02/08 10:56:31;;;;;;;31.40;13.50;;;;;;;1.42;69.24;103661.41;5035563;28;20450;-67
2023/02/08 10:59:01;;;;;;;26.40;13.67;;;;;;;1.51;70.31;103658.59;5035503;28;20469;-67
2023/02/08 11:01:28;;;;;;;35.87;15.97;;;;;;;1.62;70.47;103657.41;5035496;28;20459;-68
2023/02/08 11:04:03;;;;;;;35.60;15.10;;;;;;;1.70;70.23;103653.94;5035178;28;20539;-67
2023/02/08 11:06:29;;;;;;;31.93;14.00;;;;;;;1.71;70.29;103653.75;5035316;28;20439;-67
2023/02/08 11:08:57;;;;;;;31.20;14.00;;;;;;;1.83;69.17;103648.09;5035027;28;20474;-68
2023/02/08 11:11:25;;;;;;;44.63;14.70;;;;;;;1.91;68.85;103650.78;5034777;28;20451;-67
2023/02/08 11:13:52;;;;;;;33.20;13.43;;;;;;;1.96;69.01;103651.94;5035284;28;20447;-68
2023/02/08 11:16:24;;;;;;;28.70;11.90;;;;;;;2.02;66.47;103655.75;5034825;28;20443;-67
2023/02/08 11:18:55;;;;;;;46.80;14.47;;;;;;;2.10;66.87;103645.06;5035149;28;20462;-68
2023/02/08 11:21:25;;;;;;;33.97;13.47;;;;;;;2.16;65.10;103649.72;5035168;28;20447;-68
2023/02/08 11:23:54;;;;;;;38.40;13.87;;;;;;;2.28;64.72;103661.75;5034828;28;20989;-67